Bogota, Colombia
Current Conditions -  °F | °C
As of 3:00 PM on Tuesday 21 Oct 2014 (Local Time) from SKBO Reporting Station
Scattered Clouds Scattered Clouds  
Wind Chill: 66°   Ceiling: Unl
Heat Index: 66°   Visibility: 6mi
Dew Point: 45°   Wind: 7mph
Humidity: 46%   Direction: 120°ESE
Pressure: 30.25"   Gusts: NA
Location:  4.63°N, 74.09°W
Report Text: SKBO 212000Z 12006KT 9999 SCT020 SCT080 19/07 A3025
Loading
Personal Weather Stations






























Interactive Weather Map
Tropical Storm Tracking
New forecast layout! Learn more

10-Day Weather Forecast

Advertisements
Track Severe Weather on mobile